Flight Track Log - Related Links

Times and Time Zones

All times are in EDT time to prevent confusion due to time zone crossing. See the SKW6306 flight status page for this flight to view local times or setup timezone preferences in your user account.

Time Position Orientation Groundspeed Altitude Reporting Facility
EDT Latitude Longitude Course Direction KTS MPH feet Rate Location/Type
Sat 05:28:17 PM 52.1500 -106.6500 198° South 180 207 3,400  Level Winnipeg Center
Sat 05:29:17 PM 52.1000 -106.6333 168° South 220 253 5,900 2,000 Climbing Winnipeg Center
Sat 05:30:00 PM 51.8162 -106.8912 199° South  Level FlightAware Approximate
Sat 05:30:17 PM 52.0167 -106.6667 194° South 280 322 7,400  Level Winnipeg Center
Sat 05:31:00 PM 51.6974 -106.9514 197° South  Level FlightAware Approximate
Sat 05:31:17 PM 51.9500 -106.7167 205° Southwest 300 345 9,600  Level Winnipeg Center
Sat 05:32:00 PM 51.5799 -107.0108 198° South  Level FlightAware Approximate
Sat 05:32:17 PM 51.8667 -106.7667 200° South 310 357 11,000  Level Winnipeg Center
Sat 05:33:00 PM 51.4617 -107.0739 198° South  Level FlightAware Approximate
Sat 05:33:17 PM 51.7667 -106.8333 202° Southwest 330 380 12,700  Level Winnipeg Center
Sat 05:34:17 PM 51.6833 -106.8667 194° South 340 391 14,300 1,500 Climbing Winnipeg Center
Sat 05:35:17 PM 51.6000 -106.9333 206° Southwest 350 403 15,700 1,350 Climbing Winnipeg Center
Sat 05:36:17 PM 51.5000 -106.9833 197° South 360 414 17,000 1,150 Climbing Winnipeg Center
Sat 05:37:17 PM 51.4167 -107.0500 207° Southwest 360 414 18,000 1,000 Climbing Winnipeg Center
Sat 05:38:17 PM 51.3167 -107.1167 203° Southwest 370 426 19,000 1,000 Climbing Winnipeg Center
Sat 05:39:17 PM 51.2167 -107.1667 197° South 380 437 20,000 1,050 Climbing Winnipeg Center
Sat 05:40:17 PM 51.1167 -107.2333 203° Southwest 380 437 21,100 900 Climbing Winnipeg Center
Sat 05:41:17 PM 51.0167 -107.2833 197° South 390 449 21,800 700 Climbing Winnipeg Center
Sat 05:42:17 PM 50.9167 -107.3500 203° Southwest 390 449 22,500 750 Climbing Winnipeg Center
Sat 05:43:17 PM 50.8167 -107.4333 208° Southwest 400 460 23,300 800 Climbing Winnipeg Center
Sat 05:44:17 PM 50.7000 -107.4833 195° South 400 460 24,100 650 Climbing Winnipeg Center
Sat 05:45:17 PM 50.6000 -107.5333 198° South 410 472 24,600 550 Climbing Winnipeg Center
Sat 05:46:17 PM 50.5000 -107.5833 198° South 410 472 25,200 650 Climbing Winnipeg Center
Sat 05:47:17 PM 50.3667 -107.6667 202° Southwest 410 472 25,900 550 Climbing Winnipeg Center
Sat 05:48:17 PM 50.2833 -107.7333 207° Southwest 420 483 26,300 450 Climbing Winnipeg Center
Sat 05:49:17 PM 50.1500 -107.7167 175° South 430 495 26,800 400 Climbing Winnipeg Center
Sat 05:50:17 PM 50.0167 -107.7500 189° South 430 495 27,100 350 Climbing Winnipeg Center
Sat 05:51:17 PM 49.9000 -107.7667 185° South 440 506 27,500 450 Climbing Winnipeg Center
Sat 05:52:17 PM 49.7833 -107.7667 180° South 440 506 28,000 500 Climbing Winnipeg Center
Sat 05:53:17 PM 49.6667 -107.8000 190° South 440 506 28,500 350 Climbing Winnipeg Center
Sat 05:54:17 PM 49.5500 -107.8000 180° South 440 506 28,700 350 Climbing Winnipeg Center
Sat 05:55:17 PM 49.4333 -107.8167 185° South 440 506 29,200 500 Climbing Winnipeg Center
Sat 05:56:17 PM 49.3000 -107.8500 189° South 440 506 29,700 400 Climbing Winnipeg Center
Sat 05:57:17 PM 49.1833 -107.8500 180° South 440 506 30,000 350 Climbing Winnipeg Center
Sat 05:58:17 PM 49.0667 -107.8667 185° South 430 495 30,400 350 Climbing Winnipeg Center
Sat 05:59:17 PM 48.9500 -107.8667 180° South 430 495 30,700 400 Climbing Winnipeg Center
Sat 06:00:17 PM 48.8167 -107.8833 185° South 440 506 31,200 400 Climbing Winnipeg Center
Sat 06:01:17 PM 48.7000 -107.8833 180° South 430 495 31,500 400 Climbing Winnipeg Center
Sat 06:02:17 PM 48.5833 -107.9000 185° South 430 495 32,000 400 Climbing Winnipeg Center
Sat 06:03:17 PM 48.4500 -107.9333 189° South 430 495 32,300 250 Climbing Winnipeg Center
Sat 06:04:17 PM 48.3500 -107.9333 180° South 430 495 32,500 224 Climbing Winnipeg Center
Sat 06:05:31 PM 48.2231 -107.9236 177° South 432 497 32,800 222 Climbing Salt Lake Center
Sat 06:06:32 PM 48.1031 -107.9358 184° South 433 498 33,000 98 Climbing Salt Lake Center
Sat 06:07:34 PM 47.9828 -107.9494 184° South 433 498 33,000  Level Salt Lake Center
Sat 06:08:36 PM 47.8589 -107.9631 184° South 439 505 33,000  Level Salt Lake Center
Sat 06:09:37 PM 47.7361 -107.9758 184° South 442 509 33,000  Level Salt Lake Center
Sat 06:10:39 PM 47.6108 -107.9892 184° South 446 513 33,000  Level Salt Lake Center
Sat 06:11:41 PM 47.4850 -107.9642 172° South 456 525 33,000  Level Salt Lake Center
Sat 06:12:42 PM 47.3347 -107.9172 168° South 461 531 33,000  Level Salt Lake Center
Sat 06:13:44 PM 47.2111 -107.8789 168° South 458 527 33,000  Level Salt Lake Center
Sat 06:14:46 PM 47.1039 -107.8453 168° South 455 524 33,000  Level Salt Lake Center
Sat 06:15:47 PM 46.9542 -107.7983 168° South 456 525 33,000  Level Salt Lake Center
Sat 06:16:49 PM 46.8317 -107.7594 168° South 456 525 33,000  Level Salt Lake Center
Sat 06:17:51 PM 46.7100 -107.7225 168° South 451 519 33,000  Level Salt Lake Center
Sat 06:18:52 PM 46.5714 -107.6772 167° South 451 519 33,000  Level Salt Lake Center
Sat 06:19:54 PM 46.4494 -107.6403 168° South 459 528 33,000  Level Salt Lake Center
Sat 06:20:56 PM 46.3272 -107.6042 168° South 451 519 33,000  Level Salt Lake Center
Sat 06:21:57 PM 46.1961 -107.5639 168° South 451 519 33,000  Level Salt Lake Center
Sat 06:22:59 PM 46.0736 -107.5264 168° South 450 518 33,000  Level Salt Lake Center
Sat 06:24:01 PM 45.9422 -107.4869 168° South 450 518 33,000  Level Salt Lake Center
Sat 06:25:02 PM 45.8197 -107.4511 168° South 454 522 33,000  Level Salt Lake Center
Sat 06:26:04 PM 45.6989 -107.4158 168° South 449 517 33,000  Level Salt Lake Center
Sat 06:27:06 PM 45.5667 -107.3764 168° South 450 518 33,000  Level Salt Lake Center
Sat 06:28:07 PM 45.4458 -107.3406 168° South 447 514 33,000  Level Salt Lake Center
Sat 06:29:09 PM 45.3117 -107.3331 178° South 445 512 33,000  Level Salt Lake Center
Sat 06:30:11 PM 45.1961 -107.3378 182° South 438 504 33,000  Level Salt Lake Center
Sat 06:31:12 PM 45.0783 -107.3414 181° South 437 503 33,000  Level Salt Lake Center
Sat 06:32:14 PM 44.9431 -107.3472 182° South 437 503 33,000  Level Salt Lake Center
Sat 06:33:16 PM 44.8261 -107.3536 182° South 437 503 33,000  Level Salt Lake Center
Sat 06:34:17 PM 44.6911 -107.3581 181° South 436 502 33,000  Level Salt Lake Center
Sat 06:35:19 PM 44.5753 -107.3636 182° South 435 501 33,000  Level Salt Lake Center
Sat 06:36:21 PM 44.4428 -107.3689 182° South 434 499 33,000  Level Salt Lake Center
Sat 06:37:22 PM 44.3275 -107.3725 181° South 433 498 33,000  Level Salt Lake Center
Sat 06:38:24 PM 44.1964 -107.3558 175° South 437 503 33,000  Level Salt Lake Center
Sat 06:39:26 PM 44.0833 -107.3081 163° South 443 510 33,000  Level Salt Lake Center
Sat 06:40:27 PM 43.9689 -107.2589 163° South 440 506 33,000  Level Salt Lake Center
Sat 06:41:29 PM 43.8378 -107.2053 164° South 440 506 33,000  Level Salt Lake Center
Sat 06:42:30 PM 43.7258 -107.1583 163° South 439 505 33,000  Level Salt Lake Center
Sat 06:43:32 PM 43.5942 -107.1036 163° South 442 509 33,000  Level Salt Lake Center
Sat 06:44:34 PM 43.4814 -107.0564 163° South 443 510 33,000  Level Salt Lake Center
Sat 06:45:35 PM 43.3686 -107.0094 163° South 443 510 33,000  Level Salt Lake Center
Sat 06:46:37 PM 43.2389 -106.9564 163° South 438 504 33,000  Level Salt Lake Center
Sat 06:47:38 PM 43.1253 -106.9100 163° South 443 510 33,000  Level Salt Lake Center
Sat 06:48:40 PM 42.9928 -106.8553 163° South 444 511 33,000  Level Salt Lake Center
Sat 06:49:52 PM 42.8597 -106.8006 163° South 444 511 33,000  Level Denver Center
Sat 06:50:53 PM 42.7244 -106.7475 164° South 448 516 33,000  Level Denver Center
Sat 06:51:55 PM 42.6108 -106.7017 163° South 448 516 33,000  Level Denver Center
Sat 06:52:57 PM 42.4789 -106.6481 163° South 444 511 33,000  Level Denver Center
Sat 06:53:59 PM 42.3650 -106.6025 164° South 446 513 33,000  Level Denver Center
Sat 06:55:00 PM 42.2553 -106.5319 155° Southeast 456 525 33,000  Level Denver Center
Sat 06:56:02 PM 42.1344 -106.4411 151° Southeast 449 517 33,000  Level Denver Center
Sat 06:57:04 PM 42.0294 -106.3614 151° Southeast 452 520 33,000  Level Denver Center
Sat 06:58:05 PM 41.9056 -106.2700 151° Southeast 455 524 33,000 -97 Level Denver Center
Sat 06:59:08 PM 41.7983 -106.1894 151° Southeast 459 528 32,800 -339 Descending Denver Center
Sat 07:00:09 PM 41.6700 -106.0953 151° Southeast 469 540 32,300 -488 Descending Denver Center
Sat 07:01:11 PM 41.5553 -106.0108 151° Southeast 486 559 31,800 -532 Descending Denver Center
Sat 07:02:13 PM 41.4214 -105.9114 151° Southeast 492 566 31,200 -387 Descending Denver Center
Sat 07:03:15 PM 41.3039 -105.8258 151° Southeast 501 577 31,000 -98 Descending Denver Center
Sat 07:04:16 PM 41.1681 -105.7261 151° Southeast 500 575 31,000 -49 Level Denver Center
Sat 07:05:18 PM 41.0533 -105.6411 151° Southeast 496 571 30,900 -1,113 Descending Denver Center
Sat 07:06:20 PM 40.9239 -105.5522 153° Southeast 495 570 28,700 -2,049 Descending Denver Center
Sat 07:07:21 PM 40.7978 -105.4989 162° South 476 548 26,700 -2,049 Descending Denver Center
Sat 07:08:23 PM 40.6789 -105.4314 157° South 468 539 24,500 -2,032 Descending Denver Center
Sat 07:09:25 PM 40.5789 -105.3269 142° Southeast 459 528 22,500 -1,694 Descending Denver Center
Sat 07:10:27 PM 40.4775 -105.2244 142° Southeast 425 489 21,000 -1,467 Descending Denver Center
Sat 07:11:40 PM 40.3850 -105.1522 149° Southeast 388 447 19,200 -1,765 Descending Denver Center
Sat 07:12:43 PM 40.2719 -105.0608 148° Southeast 363 418 17,000 -1,887 Descending Denver Center
Sat 07:13:44 PM 40.1889 -104.9953 149° Southeast 349 402 15,300 -1,317 Descending Denver Center
Sat 07:14:46 PM 40.1125 -104.9331 148° Southeast 327 376 14,300 -1,016 Descending Denver Center
Sat 07:15:48 PM 40.0308 -104.8614 146° Southeast 327 376 13,200 -1,113 Descending Denver Center
Sat 07:16:50 PM 39.9631 -104.7908 141° Southeast 314 361 12,000 -1,073 Descending Denver Center
Sat 07:17:51 PM 39.9514 -104.6872 98° East 292 336 11,000 -488 Descending Denver Center
Sat 07:18:53 PM 39.9531 -104.5881 89° East 255 293 11,000 -435 Level Denver Center
Sat 07:19:55 PM 39.9428 -104.4969 98° East 253 291 10,100 -871 Descending Denver Center

Login

Don't have an account? Register now (free) for customized features, flight alerts, and more!